sensor_id;sensor_type;location;lat;lon;timestamp;P1;durP1;ratioP1;P2;durP2;ratioP2
78336;SDS011;67610;51.588;7.002;2023-03-08T00:01:29;15.48;;;7.88;;
78336;SDS011;67610;51.588;7.002;2023-03-08T00:03:55;19.33;;;8.75;;
78336;SDS011;67610;51.588;7.002;2023-03-08T00:06:22;16.23;;;7.95;;
78336;SDS011;67610;51.588;7.002;2023-03-08T00:08:49;14.48;;;8.00;;
78336;SDS011;67610;51.588;7.002;2023-03-08T00:11:18;16.40;;;8.32;;
78336;SDS011;67610;51.588;7.002;2023-03-08T00:13:43;16.55;;;8.55;;
78336;SDS011;67610;51.588;7.002;2023-03-08T00:16:09;16.38;;;8.65;;
78336;SDS011;67610;51.588;7.002;2023-03-08T00:18:36;15.98;;;8.25;;
78336;SDS011;67610;51.588;7.002;2023-03-08T00:21:03;15.43;;;8.57;;
78336;SDS011;67610;51.588;7.002;2023-03-08T00:23:30;16.02;;;7.82;;
78336;SDS011;67610;51.588;7.002;2023-03-08T00:25:56;16.63;;;8.75;;
78336;SDS011;67610;51.588;7.002;2023-03-08T00:28:21;18.02;;;8.13;;
78336;SDS011;67610;51.588;7.002;2023-03-08T00:31:20;18.92;;;8.93;;
78336;SDS011;67610;51.588;7.002;2023-03-08T00:33:39;20.73;;;9.05;;
78336;SDS011;67610;51.588;7.002;2023-03-08T00:36:16;19.88;;;9.73;;
78336;SDS011;67610;51.588;7.002;2023-03-08T00:38:43;21.00;;;9.95;;
78336;SDS011;67610;51.588;7.002;2023-03-08T00:41:09;20.15;;;9.73;;
78336;SDS011;67610;51.588;7.002;2023-03-08T00:43:35;24.90;;;9.90;;
78336;SDS011;67610;51.588;7.002;2023-03-08T00:46:00;20.73;;;9.48;;
78336;SDS011;67610;51.588;7.002;2023-03-08T00:48:25;26.63;;;10.63;;
78336;SDS011;67610;51.588;7.002;2023-03-08T00:50:51;21.90;;;9.82;;
78336;SDS011;67610;51.588;7.002;2023-03-08T00:53:17;23.67;;;10.77;;
78336;SDS011;67610;51.588;7.002;2023-03-08T00:55:50;22.80;;;10.60;;
78336;SDS011;67610;51.588;7.002;2023-03-08T00:58:24;26.50;;;11.60;;
78336;SDS011;67610;51.588;7.002;2023-03-08T01:00:51;23.00;;;10.82;;
78336;SDS011;67610;51.588;7.002;2023-03-08T01:03:16;23.05;;;9.98;;
78336;SDS011;67610;51.588;7.002;2023-03-08T01:05:47;19.67;;;8.75;;
78336;SDS011;67610;51.588;7.002;2023-03-08T01:08:15;21.45;;;10.25;;
78336;SDS011;67610;51.588;7.002;2023-03-08T01:10:48;21.23;;;9.80;;
78336;SDS011;67610;51.588;7.002;2023-03-08T01:13:15;23.85;;;10.63;;
78336;SDS011;67610;51.588;7.002;2023-03-08T01:15:41;24.23;;;10.68;;
78336;SDS011;67610;51.588;7.002;2023-03-08T01:18:07;20.33;;;9.73;;
78336;SDS011;67610;51.588;7.002;2023-03-08T01:20:32;23.15;;;9.68;;
78336;SDS011;67610;51.588;7.002;2023-03-08T01:22:58;21.85;;;10.77;;
78336;SDS011;67610;51.588;7.002;2023-03-08T01:25:23;21.10;;;10.40;;
78336;SDS011;67610;51.588;7.002;2023-03-08T01:27:49;24.15;;;11.52;;
78336;SDS011;67610;51.588;7.002;2023-03-08T01:30:15;23.48;;;10.27;;
78336;SDS011;67610;51.588;7.002;2023-03-08T01:32:40;22.23;;;10.70;;
78336;SDS011;67610;51.588;7.002;2023-03-08T01:35:06;23.23;;;10.55;;
78336;SDS011;67610;51.588;7.002;2023-03-08T01:37:32;23.90;;;11.48;;
78336;SDS011;67610;51.588;7.002;2023-03-08T01:39:58;23.52;;;9.85;;
78336;SDS011;67610;51.588;7.002;2023-03-08T01:42:24;19.83;;;10.20;;
78336;SDS011;67610;51.588;7.002;2023-03-08T01:44:54;27.50;;;11.57;;
78336;SDS011;67610;51.588;7.002;2023-03-08T01:47:25;23.77;;;11.00;;
78336;SDS011;67610;51.588;7.002;2023-03-08T01:49:52;23.67;;;11.15;;
78336;SDS011;67610;51.588;7.002;2023-03-08T01:52:40;23.85;;;10.93;;
78336;SDS011;67610;51.588;7.002;2023-03-08T01:55:09;21.50;;;10.60;;
78336;SDS011;67610;51.588;7.002;2023-03-08T02:00:23;21.17;;;9.77;;
78336;SDS011;67610;51.588;7.002;2023-03-08T02:02:55;21.00;;;8.95;;
78336;SDS011;67610;51.588;7.002;2023-03-08T02:05:24;21.60;;;9.77;;
78336;SDS011;67610;51.588;7.002;2023-03-08T02:07:50;24.88;;;9.43;;
78336;SDS011;67610;51.588;7.002;2023-03-08T02:10:15;22.05;;;9.13;;
78336;SDS011;67610;51.588;7.002;2023-03-08T02:12:42;20.40;;;9.27;;
78336;SDS011;67610;51.588;7.002;2023-03-08T02:15:09;21.48;;;8.85;;
78336;SDS011;67610;51.588;7.002;2023-03-08T02:17:36;18.50;;;8.75;;
78336;SDS011;67610;51.588;7.002;2023-03-08T02:20:14;21.88;;;9.82;;
78336;SDS011;67610;51.588;7.002;2023-03-08T02:22:41;23.33;;;9.65;;
78336;SDS011;67610;51.588;7.002;2023-03-08T02:27:40;24.98;;;9.80;;
78336;SDS011;67610;51.588;7.002;2023-03-08T02:30:06;19.98;;;9.27;;
78336;SDS011;67610;51.588;7.002;2023-03-08T02:32:33;18.80;;;8.65;;
78336;SDS011;67610;51.588;7.002;2023-03-08T02:34:59;18.42;;;9.13;;
78336;SDS011;67610;51.588;7.002;2023-03-08T02:37:24;25.08;;;9.70;;
78336;SDS011;67610;51.588;7.002;2023-03-08T02:39:49;24.55;;;11.10;;
78336;SDS011;67610;51.588;7.002;2023-03-08T02:42:15;23.50;;;10.27;;
78336;SDS011;67610;51.588;7.002;2023-03-08T02:44:40;22.63;;;9.52;;
78336;SDS011;67610;51.588;7.002;2023-03-08T02:47:05;20.27;;;9.93;;
78336;SDS011;67610;51.588;7.002;2023-03-08T02:49:31;21.08;;;9.65;;
78336;SDS011;67610;51.588;7.002;2023-03-08T02:51:56;25.23;;;10.38;;
78336;SDS011;67610;51.588;7.002;2023-03-08T02:54:22;21.90;;;10.43;;
78336;SDS011;67610;51.588;7.002;2023-03-08T02:56:47;24.30;;;10.73;;
78336;SDS011;67610;51.588;7.002;2023-03-08T02:59:13;22.30;;;11.45;;
78336;SDS011;67610;51.588;7.002;2023-03-08T03:01:38;21.15;;;9.85;;
78336;SDS011;67610;51.588;7.002;2023-03-08T03:04:03;22.38;;;10.18;;
78336;SDS011;67610;51.588;7.002;2023-03-08T03:06:29;24.50;;;10.77;;
78336;SDS011;67610;51.588;7.002;2023-03-08T03:08:54;18.90;;;9.07;;
78336;SDS011;67610;51.588;7.002;2023-03-08T03:11:20;24.13;;;10.02;;
78336;SDS011;67610;51.588;7.002;2023-03-08T03:13:46;21.73;;;9.38;;
78336;SDS011;67610;51.588;7.002;2023-03-08T03:16:17;20.05;;;8.52;;
78336;SDS011;67610;51.588;7.002;2023-03-08T03:18:42;21.05;;;9.38;;
78336;SDS011;67610;51.588;7.002;2023-03-08T03:21:09;17.48;;;8.98;;
78336;SDS011;67610;51.588;7.002;2023-03-08T03:23:36;21.75;;;9.07;;
78336;SDS011;67610;51.588;7.002;2023-03-08T03:26:06;17.85;;;9.20;;
78336;SDS011;67610;51.588;7.002;2023-03-08T03:28:33;16.92;;;8.48;;
78336;SDS011;67610;51.588;7.002;2023-03-08T03:30:58;16.77;;;8.00;;
78336;SDS011;67610;51.588;7.002;2023-03-08T03:33:24;20.75;;;8.80;;
78336;SDS011;67610;51.588;7.002;2023-03-08T03:35:49;16.25;;;8.07;;
78336;SDS011;67610;51.588;7.002;2023-03-08T03:38:14;15.02;;;7.35;;
78336;SDS011;67610;51.588;7.002;2023-03-08T03:40:40;14.98;;;7.25;;
78336;SDS011;67610;51.588;7.002;2023-03-08T03:43:05;15.75;;;7.60;;
78336;SDS011;67610;51.588;7.002;2023-03-08T03:45:30;15.68;;;7.40;;
78336;SDS011;67610;51.588;7.002;2023-03-08T03:47:56;14.38;;;7.18;;
78336;SDS011;67610;51.588;7.002;2023-03-08T03:50:21;14.35;;;7.47;;
78336;SDS011;67610;51.588;7.002;2023-03-08T03:52:47;14.85;;;6.85;;
78336;SDS011;67610;51.588;7.002;2023-03-08T03:55:12;13.52;;;6.60;;
78336;SDS011;67610;51.588;7.002;2023-03-08T03:57:37;13.13;;;6.20;;
78336;SDS011;67610;51.588;7.002;2023-03-08T04:00:03;15.68;;;7.25;;
78336;SDS011;67610;51.588;7.002;2023-03-08T04:02:30;14.75;;;6.43;;
78336;SDS011;67610;51.588;7.002;2023-03-08T04:04:55;14.55;;;6.70;;
78336;SDS011;67610;51.588;7.002;2023-03-08T04:07:21;15.35;;;7.57;;
78336;SDS011;67610;51.588;7.002;2023-03-08T04:09:46;17.08;;;7.63;;
78336;SDS011;67610;51.588;7.002;2023-03-08T04:12:12;14.25;;;6.80;;
78336;SDS011;67610;51.588;7.002;2023-03-08T04:14:38;14.65;;;6.78;;
78336;SDS011;67610;51.588;7.002;2023-03-08T04:17:04;14.77;;;6.53;;
78336;SDS011;67610;51.588;7.002;2023-03-08T04:19:30;13.32;;;6.10;;
78336;SDS011;67610;51.588;7.002;2023-03-08T04:21:55;14.63;;;6.63;;
78336;SDS011;67610;51.588;7.002;2023-03-08T04:24:21;12.65;;;6.45;;
78336;SDS011;67610;51.588;7.002;2023-03-08T04:26:46;19.52;;;8.13;;
78336;SDS011;67610;51.588;7.002;2023-03-08T04:29:12;13.23;;;6.53;;
78336;SDS011;67610;51.588;7.002;2023-03-08T04:31:37;14.63;;;6.50;;
78336;SDS011;67610;51.588;7.002;2023-03-08T04:34:03;15.30;;;7.35;;
78336;SDS011;67610;51.588;7.002;2023-03-08T04:36:28;15.88;;;7.43;;
78336;SDS011;67610;51.588;7.002;2023-03-08T04:38:54;15.10;;;7.18;;
78336;SDS011;67610;51.588;7.002;2023-03-08T04:41:20;12.93;;;6.80;;
78336;SDS011;67610;51.588;7.002;2023-03-08T04:43:46;14.55;;;7.00;;
78336;SDS011;67610;51.588;7.002;2023-03-08T04:46:14;17.90;;;8.35;;
78336;SDS011;67610;51.588;7.002;2023-03-08T04:48:40;15.07;;;7.55;;
78336;SDS011;67610;51.588;7.002;2023-03-08T04:51:06;15.13;;;7.38;;
78336;SDS011;67610;51.588;7.002;2023-03-08T04:53:33;15.77;;;7.85;;
78336;SDS011;67610;51.588;7.002;2023-03-08T04:55:59;16.45;;;7.40;;
78336;SDS011;67610;51.588;7.002;2023-03-08T04:58:25;15.65;;;7.40;;
78336;SDS011;67610;51.588;7.002;2023-03-08T05:00:52;15.40;;;7.38;;
78336;SDS011;67610;51.588;7.002;2023-03-08T05:03:17;16.25;;;7.22;;
78336;SDS011;67610;51.588;7.002;2023-03-08T05:05:46;16.17;;;7.45;;
78336;SDS011;67610;51.588;7.002;2023-03-08T05:08:13;15.07;;;7.30;;
78336;SDS011;67610;51.588;7.002;2023-03-08T05:10:39;17.30;;;7.75;;
78336;SDS011;67610;51.588;7.002;2023-03-08T05:13:10;17.13;;;8.15;;
78336;SDS011;67610;51.588;7.002;2023-03-08T05:15:35;16.55;;;7.82;;
78336;SDS011;67610;51.588;7.002;2023-03-08T05:18:01;18.38;;;6.95;;
78336;SDS011;67610;51.588;7.002;2023-03-08T05:20:26;17.10;;;7.38;;
78336;SDS011;67610;51.588;7.002;2023-03-08T05:22:51;15.75;;;7.22;;
78336;SDS011;67610;51.588;7.002;2023-03-08T05:25:17;17.38;;;7.78;;
78336;SDS011;67610;51.588;7.002;2023-03-08T05:27:42;18.27;;;8.27;;
78336;SDS011;67610;51.588;7.002;2023-03-08T05:30:08;15.43;;;7.43;;
78336;SDS011;67610;51.588;7.002;2023-03-08T05:32:33;16.60;;;6.93;;
78336;SDS011;67610;51.588;7.002;2023-03-08T05:34:59;17.63;;;8.07;;
78336;SDS011;67610;51.588;7.002;2023-03-08T05:37:24;15.50;;;6.75;;
78336;SDS011;67610;51.588;7.002;2023-03-08T05:39:50;13.82;;;6.82;;
78336;SDS011;67610;51.588;7.002;2023-03-08T05:42:16;19.73;;;7.85;;
78336;SDS011;67610;51.588;7.002;2023-03-08T05:44:41;16.27;;;7.07;;
78336;SDS011;67610;51.588;7.002;2023-03-08T05:47:07;16.83;;;7.85;;
78336;SDS011;67610;51.588;7.002;2023-03-08T05:49:32;17.52;;;7.90;;
78336;SDS011;67610;51.588;7.002;2023-03-08T05:51:58;15.63;;;7.40;;
78336;SDS011;67610;51.588;7.002;2023-03-08T05:54:23;15.75;;;7.10;;
78336;SDS011;67610;51.588;7.002;2023-03-08T05:56:48;15.15;;;7.80;;
78336;SDS011;67610;51.588;7.002;2023-03-08T05:59:14;16.00;;;7.57;;
78336;SDS011;67610;51.588;7.002;2023-03-08T06:01:39;17.33;;;7.65;;
78336;SDS011;67610;51.588;7.002;2023-03-08T06:04:05;15.95;;;8.07;;
78336;SDS011;67610;51.588;7.002;2023-03-08T06:06:30;18.80;;;8.13;;
78336;SDS011;67610;51.588;7.002;2023-03-08T06:08:55;19.48;;;8.18;;
78336;SDS011;67610;51.588;7.002;2023-03-08T06:11:21;18.90;;;8.18;;
78336;SDS011;67610;51.588;7.002;2023-03-08T06:13:46;15.27;;;7.28;;
78336;SDS011;67610;51.588;7.002;2023-03-08T06:16:12;18.38;;;7.60;;
78336;SDS011;67610;51.588;7.002;2023-03-08T06:18:38;19.30;;;8.18;;
78336;SDS011;67610;51.588;7.002;2023-03-08T06:21:05;17.92;;;8.80;;
78336;SDS011;67610;51.588;7.002;2023-03-08T06:23:33;18.35;;;9.18;;
78336;SDS011;67610;51.588;7.002;2023-03-08T06:25:59;17.40;;;7.93;;
78336;SDS011;67610;51.588;7.002;2023-03-08T06:28:25;16.73;;;6.38;;
78336;SDS011;67610;51.588;7.002;2023-03-08T06:30:52;14.15;;;7.35;;
78336;SDS011;67610;51.588;7.002;2023-03-08T06:33:18;14.82;;;6.85;;
78336;SDS011;67610;51.588;7.002;2023-03-08T06:38:25;14.80;;;6.85;;
78336;SDS011;67610;51.588;7.002;2023-03-08T06:40:51;12.20;;;5.82;;
78336;SDS011;67610;51.588;7.002;2023-03-08T06:43:17;13.18;;;5.72;;
78336;SDS011;67610;51.588;7.002;2023-03-08T06:45:42;14.57;;;4.93;;
78336;SDS011;67610;51.588;7.002;2023-03-08T06:48:08;8.63;;;4.25;;
78336;SDS011;67610;51.588;7.002;2023-03-08T06:50:33;11.73;;;5.20;;
78336;SDS011;67610;51.588;7.002;2023-03-08T06:52:59;12.07;;;5.45;;
78336;SDS011;67610;51.588;7.002;2023-03-08T06:55:24;15.48;;;6.35;;
78336;SDS011;67610;51.588;7.002;2023-03-08T06:57:50;11.35;;;5.80;;
78336;SDS011;67610;51.588;7.002;2023-03-08T07:00:16;8.88;;;4.65;;
78336;SDS011;67610;51.588;7.002;2023-03-08T07:02:42;9.75;;;4.78;;
78336;SDS011;67610;51.588;7.002;2023-03-08T07:05:07;9.73;;;4.22;;
78336;SDS011;67610;51.588;7.002;2023-03-08T07:07:33;9.77;;;4.60;;
78336;SDS011;67610;51.588;7.002;2023-03-08T07:10:00;9.93;;;4.70;;
78336;SDS011;67610;51.588;7.002;2023-03-08T07:12:26;8.98;;;4.65;;
78336;SDS011;67610;51.588;7.002;2023-03-08T07:14:52;9.27;;;3.67;;
78336;SDS011;67610;51.588;7.002;2023-03-08T07:17:17;8.70;;;3.85;;
78336;SDS011;67610;51.588;7.002;2023-03-08T07:19:43;8.57;;;4.40;;
78336;SDS011;67610;51.588;7.002;2023-03-08T07:22:09;9.30;;;3.72;;
78336;SDS011;67610;51.588;7.002;2023-03-08T07:24:36;7.70;;;3.80;;
78336;SDS011;67610;51.588;7.002;2023-03-08T07:27:02;9.00;;;4.30;;
78336;SDS011;67610;51.588;7.002;2023-03-08T07:29:28;9.15;;;3.80;;
78336;SDS011;67610;51.588;7.002;2023-03-08T07:31:53;8.05;;;3.85;;
78336;SDS011;67610;51.588;7.002;2023-03-08T07:34:19;8.10;;;4.22;;
78336;SDS011;67610;51.588;7.002;2023-03-08T07:36:44;9.05;;;3.60;;
78336;SDS011;67610;51.588;7.002;2023-03-08T07:39:16;8.88;;;3.85;;
78336;SDS011;67610;51.588;7.002;2023-03-08T07:41:41;8.95;;;4.05;;
78336;SDS011;67610;51.588;7.002;2023-03-08T07:44:07;8.05;;;3.72;;
78336;SDS011;67610;51.588;7.002;2023-03-08T07:46:32;9.15;;;3.63;;
78336;SDS011;67610;51.588;7.002;2023-03-08T07:48:58;8.90;;;3.60;;
78336;SDS011;67610;51.588;7.002;2023-03-08T07:51:23;7.22;;;3.60;;
78336;SDS011;67610;51.588;7.002;2023-03-08T07:53:50;7.40;;;3.67;;
78336;SDS011;67610;51.588;7.002;2023-03-08T07:56:16;8.85;;;3.58;;
78336;SDS011;67610;51.588;7.002;2023-03-08T07:58:41;8.82;;;3.80;;
78336;SDS011;67610;51.588;7.002;2023-03-08T08:01:08;10.00;;;3.80;;
78336;SDS011;67610;51.588;7.002;2023-03-08T08:03:36;9.45;;;4.20;;
78336;SDS011;67610;51.588;7.002;2023-03-08T08:06:03;6.88;;;3.55;;
78336;SDS011;67610;51.588;7.002;2023-03-08T08:08:30;8.90;;;3.65;;
78336;SDS011;67610;51.588;7.002;2023-03-08T08:10:55;9.00;;;4.10;;
78336;SDS011;67610;51.588;7.002;2023-03-08T08:13:20;7.90;;;3.90;;
78336;SDS011;67610;51.588;7.002;2023-03-08T08:15:46;9.20;;;4.20;;
78336;SDS011;67610;51.588;7.002;2023-03-08T08:18:11;7.25;;;3.38;;
78336;SDS011;67610;51.588;7.002;2023-03-08T08:20:37;6.35;;;3.50;;
78336;SDS011;67610;51.588;7.002;2023-03-08T08:23:06;6.68;;;3.40;;
78336;SDS011;67610;51.588;7.002;2023-03-08T08:25:34;7.43;;;3.67;;
78336;SDS011;67610;51.588;7.002;2023-03-08T08:28:02;5.65;;;3.28;;
78336;SDS011;67610;51.588;7.002;2023-03-08T08:30:28;7.72;;;3.65;;
78336;SDS011;67610;51.588;7.002;2023-03-08T08:32:53;7.90;;;3.78;;
78336;SDS011;67610;51.588;7.002;2023-03-08T08:35:18;4.10;;;2.33;;
78336;SDS011;67610;51.588;7.002;2023-03-08T08:37:44;5.50;;;2.50;;
78336;SDS011;67610;51.588;7.002;2023-03-08T08:40:09;4.30;;;2.20;;
78336;SDS011;67610;51.588;7.002;2023-03-08T08:42:36;3.88;;;2.13;;
78336;SDS011;67610;51.588;7.002;2023-03-08T08:45:02;3.10;;;1.80;;
78336;SDS011;67610;51.588;7.002;2023-03-08T08:47:28;3.90;;;2.22;;
78336;SDS011;67610;51.588;7.002;2023-03-08T08:49:53;4.80;;;2.47;;
78336;SDS011;67610;51.588;7.002;2023-03-08T08:52:19;3.67;;;2.05;;
78336;SDS011;67610;51.588;7.002;2023-03-08T08:54:44;6.00;;;2.22;;
78336;SDS011;67610;51.588;7.002;2023-03-08T08:57:10;4.43;;;2.40;;
78336;SDS011;67610;51.588;7.002;2023-03-08T08:59:35;4.80;;;2.15;;
78336;SDS011;67610;51.588;7.002;2023-03-08T09:02:00;4.82;;;2.83;;
78336;SDS011;67610;51.588;7.002;2023-03-08T09:04:26;6.10;;;2.50;;
78336;SDS011;67610;51.588;7.002;2023-03-08T09:06:51;4.07;;;2.42;;
78336;SDS011;67610;51.588;7.002;2023-03-08T09:09:17;4.38;;;2.28;;
78336;SDS011;67610;51.588;7.002;2023-03-08T09:11:43;4.18;;;2.33;;
78336;SDS011;67610;51.588;7.002;2023-03-08T09:14:08;4.72;;;2.42;;
78336;SDS011;67610;51.588;7.002;2023-03-08T09:16:34;3.88;;;2.45;;
78336;SDS011;67610;51.588;7.002;2023-03-08T09:19:00;4.97;;;2.90;;
78336;SDS011;67610;51.588;7.002;2023-03-08T09:21:27;4.10;;;2.60;;
78336;SDS011;67610;51.588;7.002;2023-03-08T09:23:54;5.78;;;2.55;;
78336;SDS011;67610;51.588;7.002;2023-03-08T09:26:22;5.57;;;2.90;;
78336;SDS011;67610;51.588;7.002;2023-03-08T09:28:48;5.88;;;2.28;;
78336;SDS011;67610;51.588;7.002;2023-03-08T09:31:14;6.03;;;2.80;;
78336;SDS011;67610;51.588;7.002;2023-03-08T09:33:42;6.45;;;2.55;;
78336;SDS011;67610;51.588;7.002;2023-03-08T09:36:12;6.78;;;3.30;;
78336;SDS011;67610;51.588;7.002;2023-03-08T09:38:38;6.60;;;3.22;;
78336;SDS011;67610;51.588;7.002;2023-03-08T09:44:03;4.70;;;2.42;;
78336;SDS011;67610;51.588;7.002;2023-03-08T09:46:35;5.55;;;2.80;;
78336;SDS011;67610;51.588;7.002;2023-03-08T09:49:11;4.55;;;2.78;;
78336;SDS011;67610;51.588;7.002;2023-03-08T09:51:43;4.13;;;2.60;;
78336;SDS011;67610;51.588;7.002;2023-03-08T09:54:13;6.47;;;2.80;;
78336;SDS011;67610;51.588;7.002;2023-03-08T09:56:49;5.03;;;2.72;;
78336;SDS011;67610;51.588;7.002;2023-03-08T09:59:23;6.47;;;3.55;;
78336;SDS011;67610;51.588;7.002;2023-03-08T10:02:12;5.97;;;3.03;;
78336;SDS011;67610;51.588;7.002;2023-03-08T10:04:48;5.30;;;3.08;;
78336;SDS011;67610;51.588;7.002;2023-03-08T10:07:37;7.25;;;3.72;;
78336;SDS011;67610;51.588;7.002;2023-03-08T10:10:12;8.43;;;4.15;;
78336;SDS011;67610;51.588;7.002;2023-03-08T10:12:50;9.27;;;4.65;;
78336;SDS011;67610;51.588;7.002;2023-03-08T10:15:20;10.20;;;5.32;;
78336;SDS011;67610;51.588;7.002;2023-03-08T10:17:48;9.88;;;4.85;;
78336;SDS011;67610;51.588;7.002;2023-03-08T10:20:21;10.82;;;5.45;;
78336;SDS011;67610;51.588;7.002;2023-03-08T10:25:43;10.13;;;5.28;;
78336;SDS011;67610;51.588;7.002;2023-03-08T10:28:18;9.85;;;5.25;;
78336;SDS011;67610;51.588;7.002;2023-03-08T10:33:13;9.93;;;4.93;;
78336;SDS011;67610;51.588;7.002;2023-03-08T10:35:55;6.85;;;3.92;;
78336;SDS011;67610;51.588;7.002;2023-03-08T10:38:41;11.15;;;5.38;;
78336;SDS011;67610;51.588;7.002;2023-03-08T10:41:14;8.85;;;4.85;;
78336;SDS011;67610;51.588;7.002;2023-03-08T10:43:45;11.68;;;4.63;;
78336;SDS011;67610;51.588;7.002;2023-03-08T10:46:16;10.00;;;4.85;;
78336;SDS011;67610;51.588;7.002;2023-03-08T10:48:44;8.55;;;5.03;;
78336;SDS011;67610;51.588;7.002;2023-03-08T10:51:18;10.52;;;4.30;;
78336;SDS011;67610;51.588;7.002;2023-03-08T10:54:00;7.70;;;4.05;;
78336;SDS011;67610;51.588;7.002;2023-03-08T10:56:34;9.70;;;4.00;;
78336;SDS011;67610;51.588;7.002;2023-03-08T10:59:00;6.82;;;3.17;;
78336;SDS011;67610;51.588;7.002;2023-03-08T11:01:30;6.45;;;3.75;;
78336;SDS011;67610;51.588;7.002;2023-03-08T11:04:05;6.15;;;3.60;;
78336;SDS011;67610;51.588;7.002;2023-03-08T11:06:39;3.90;;;2.70;;
78336;SDS011;67610;51.588;7.002;2023-03-08T11:09:17;6.97;;;3.70;;
78336;SDS011;67610;51.588;7.002;2023-03-08T11:11:51;5.68;;;3.30;;
78336;SDS011;67610;51.588;7.002;2023-03-08T11:14:26;4.95;;;2.85;;
78336;SDS011;67610;51.588;7.002;2023-03-08T11:17:14;5.13;;;3.10;;
78336;SDS011;67610;51.588;7.002;2023-03-08T11:22:42;4.18;;;2.90;;
78336;SDS011;67610;51.588;7.002;2023-03-08T11:25:32;4.85;;;2.78;;
78336;SDS011;67610;51.588;7.002;2023-03-08T11:30:58;4.35;;;2.97;;
78336;SDS011;67610;51.588;7.002;2023-03-08T11:36:36;4.13;;;2.80;;
78336;SDS011;67610;51.588;7.002;2023-03-08T11:39:38;4.45;;;3.00;;
78336;SDS011;67610;51.588;7.002;2023-03-08T11:45:17;5.63;;;3.30;;
78336;SDS011;67610;51.588;7.002;2023-03-08T11:50:41;6.55;;;4.07;;
78336;SDS011;67610;51.588;7.002;2023-03-08T12:01:00;4.00;;;2.88;;
78336;SDS011;67610;51.588;7.002;2023-03-08T12:03:30;4.55;;;3.08;;
78336;SDS011;67610;51.588;7.002;2023-03-08T12:06:04;5.70;;;3.15;;
78336;SDS011;67610;51.588;7.002;2023-03-08T12:08:40;5.47;;;3.30;;
78336;SDS011;67610;51.588;7.002;2023-03-08T12:13:45;6.07;;;3.20;;
78336;SDS011;67610;51.588;7.002;2023-03-08T12:16:18;3.90;;;2.65;;
78336;SDS011;67610;51.588;7.002;2023-03-08T12:27:17;4.38;;;2.35;;
78336;SDS011;67610;51.588;7.002;2023-03-08T12:29:58;5.70;;;2.65;;
78336;SDS011;67610;51.588;7.002;2023-03-08T12:32:36;4.30;;;2.88;;
78336;SDS011;67610;51.588;7.002;2023-03-08T12:35:19;5.63;;;2.72;;
78336;SDS011;67610;51.588;7.002;2023-03-08T12:37:58;3.78;;;2.60;;
78336;SDS011;67610;51.588;7.002;2023-03-08T12:40:25;3.92;;;2.40;;
78336;SDS011;67610;51.588;7.002;2023-03-08T12:43:06;3.60;;;2.30;;
78336;SDS011;67610;51.588;7.002;2023-03-08T12:45:37;4.22;;;2.70;;
78336;SDS011;67610;51.588;7.002;2023-03-08T12:50:29;3.30;;;2.30;;
78336;SDS011;67610;51.588;7.002;2023-03-08T12:52:59;3.75;;;2.70;;
78336;SDS011;67610;51.588;7.002;2023-03-08T12:55:25;3.30;;;2.50;;
78336;SDS011;67610;51.588;7.002;2023-03-08T12:57:55;6.05;;;2.70;;
78336;SDS011;67610;51.588;7.002;2023-03-08T13:03:49;4.03;;;2.63;;
78336;SDS011;67610;51.588;7.002;2023-03-08T13:05:43;4.10;;;2.58;;
78336;SDS011;67610;51.588;7.002;2023-03-08T13:10:37;4.95;;;3.45;;
78336;SDS011;67610;51.588;7.002;2023-03-08T13:15:30;5.25;;;3.15;;
78336;SDS011;67610;51.588;7.002;2023-03-08T13:28:25;5.20;;;3.40;;
78336;SDS011;67610;51.588;7.002;2023-03-08T13:30:57;5.05;;;2.90;;
78336;SDS011;67610;51.588;7.002;2023-03-08T13:44:00;5.05;;;3.42;;
78336;SDS011;67610;51.588;7.002;2023-03-08T13:46:26;5.38;;;3.33;;
78336;SDS011;67610;51.588;7.002;2023-03-08T13:48:53;6.18;;;3.63;;
78336;SDS011;67610;51.588;7.002;2023-03-08T13:51:19;4.68;;;3.53;;
78336;SDS011;67610;51.588;7.002;2023-03-08T13:53:49;5.53;;;3.58;;
78336;SDS011;67610;51.588;7.002;2023-03-08T13:56:22;4.40;;;3.13;;
78336;SDS011;67610;51.588;7.002;2023-03-08T13:58:52;4.40;;;3.03;;
78336;SDS011;67610;51.588;7.002;2023-03-08T14:01:21;5.30;;;3.70;;
78336;SDS011;67610;51.588;7.002;2023-03-08T14:03:49;5.68;;;3.60;;
78336;SDS011;67610;51.588;7.002;2023-03-08T14:08:40;6.22;;;3.75;;
78336;SDS011;67610;51.588;7.002;2023-03-08T14:11:06;7.45;;;4.30;;
78336;SDS011;67610;51.588;7.002;2023-03-08T14:13:38;6.90;;;3.72;;
78336;SDS011;67610;51.588;7.002;2023-03-08T14:16:07;4.88;;;3.40;;
78336;SDS011;67610;51.588;7.002;2023-03-08T14:18:46;6.65;;;3.83;;
78336;SDS011;67610;51.588;7.002;2023-03-08T14:21:16;5.15;;;3.28;;
78336;SDS011;67610;51.588;7.002;2023-03-08T14:23:45;5.63;;;3.50;;
78336;SDS011;67610;51.588;7.002;2023-03-08T14:28:49;5.20;;;3.25;;
78336;SDS011;67610;51.588;7.002;2023-03-08T14:31:27;7.38;;;3.90;;
78336;SDS011;67610;51.588;7.002;2023-03-08T14:33:57;6.53;;;3.92;;
78336;SDS011;67610;51.588;7.002;2023-03-08T14:36:25;7.18;;;3.58;;
78336;SDS011;67610;51.588;7.002;2023-03-08T14:38:51;5.72;;;3.67;;
78336;SDS011;67610;51.588;7.002;2023-03-08T14:41:17;6.10;;;3.72;;
78336;SDS011;67610;51.588;7.002;2023-03-08T14:43:52;4.72;;;3.45;;
78336;SDS011;67610;51.588;7.002;2023-03-08T14:46:18;5.22;;;3.30;;
78336;SDS011;67610;51.588;7.002;2023-03-08T14:48:54;5.30;;;3.70;;
78336;SDS011;67610;51.588;7.002;2023-03-08T14:51:29;5.35;;;3.40;;
78336;SDS011;67610;51.588;7.002;2023-03-08T14:54:02;11.25;;;4.47;;
78336;SDS011;67610;51.588;7.002;2023-03-08T14:56:30;7.10;;;4.25;;
78336;SDS011;67610;51.588;7.002;2023-03-08T14:59:01;5.68;;;3.63;;
78336;SDS011;67610;51.588;7.002;2023-03-08T15:01:30;5.85;;;3.72;;
78336;SDS011;67610;51.588;7.002;2023-03-08T15:04:00;6.45;;;3.83;;
78336;SDS011;67610;51.588;7.002;2023-03-08T15:06:27;9.15;;;4.30;;
78336;SDS011;67610;51.588;7.002;2023-03-08T15:08:55;7.93;;;4.53;;
78336;SDS011;67610;51.588;7.002;2023-03-08T15:11:22;7.82;;;4.47;;
78336;SDS011;67610;51.588;7.002;2023-03-08T15:13:47;8.30;;;4.43;;
78336;SDS011;67610;51.588;7.002;2023-03-08T15:16:14;7.68;;;4.78;;
78336;SDS011;67610;51.588;7.002;2023-03-08T15:18:39;7.47;;;4.70;;
78336;SDS011;67610;51.588;7.002;2023-03-08T15:21:05;7.28;;;4.30;;
78336;SDS011;67610;51.588;7.002;2023-03-08T15:23:31;7.97;;;4.63;;
78336;SDS011;67610;51.588;7.002;2023-03-08T15:25:59;7.15;;;4.28;;
78336;SDS011;67610;51.588;7.002;2023-03-08T15:28:25;9.27;;;5.38;;
78336;SDS011;67610;51.588;7.002;2023-03-08T15:30:51;8.80;;;5.40;;
78336;SDS011;67610;51.588;7.002;2023-03-08T15:33:18;8.38;;;4.55;;
78336;SDS011;67610;51.588;7.002;2023-03-08T15:35:44;8.23;;;4.90;;
78336;SDS011;67610;51.588;7.002;2023-03-08T15:38:14;8.38;;;4.97;;
78336;SDS011;67610;51.588;7.002;2023-03-08T15:40:41;7.75;;;4.63;;
78336;SDS011;67610;51.588;7.002;2023-03-08T15:43:07;10.27;;;5.75;;
78336;SDS011;67610;51.588;7.002;2023-03-08T15:45:33;10.00;;;5.70;;
78336;SDS011;67610;51.588;7.002;2023-03-08T15:48:03;11.00;;;5.88;;
78336;SDS011;67610;51.588;7.002;2023-03-08T15:50:30;8.20;;;4.90;;
78336;SDS011;67610;51.588;7.002;2023-03-08T15:52:56;8.35;;;4.82;;
78336;SDS011;67610;51.588;7.002;2023-03-08T15:55:23;8.50;;;5.25;;
78336;SDS011;67610;51.588;7.002;2023-03-08T15:57:49;9.15;;;5.20;;
78336;SDS011;67610;51.588;7.002;2023-03-08T16:00:15;9.02;;;5.20;;
78336;SDS011;67610;51.588;7.002;2023-03-08T16:02:43;8.50;;;4.93;;
78336;SDS011;67610;51.588;7.002;2023-03-08T16:05:09;7.28;;;4.20;;
78336;SDS011;67610;51.588;7.002;2023-03-08T16:07:36;7.10;;;4.38;;
78336;SDS011;67610;51.588;7.002;2023-03-08T16:10:02;7.03;;;4.60;;
78336;SDS011;67610;51.588;7.002;2023-03-08T16:12:29;7.25;;;4.50;;